Time;durP1;ratioP1;P1;durP2;ratioP2;P2;SDS_P1;SDS_P2;PMS_P1;PMS_P2;Temp;Humidity;BMP_temperature;BMP_pressure;BME280_temperature;BME280_humidity;BME280_pressure;Samples;Min_cycle;Max_cycle;Signal;HPM_P1;HPM_P2
2023/01/17 00:00:13;;;;;;;19.60;8.60;;;;;;;-21.13;71.39;101206.72;4914341;28;20099;-56
2023/01/17 00:02:44;;;;;;;6.65;5.93;;;;;;;-20.97;71.50;101195.47;4923206;28;20110;-57
2023/01/17 00:11:19;;;;;;;24.98;11.52;;;;;;;-20.10;71.95;101199.19;4906179;28;20063;-56
2023/01/17 00:13:50;;;;;;;29.55;11.90;;;;;;;-19.93;71.71;101197.09;4918725;28;20067;-55
2023/01/17 00:16:20;;;;;;;23.27;9.82;;;;;;;-19.72;71.66;101178.81;4918852;28;20044;-56
2023/01/17 01:35:02;;;;;;;9.13;4.43;;;;;;;-16.12;62.47;101165.03;4906868;28;20463;-58
2023/01/17 01:37:33;;;;;;;6.15;4.60;;;;;;;-16.01;61.97;101162.75;4918392;28;20065;-58
2023/01/17 01:40:03;;;;;;;10.32;4.32;;;;;;;-15.90;61.91;101159.69;4916072;28;20061;-58
2023/01/17 01:42:35;;;;;;;6.13;3.72;;;;;;;-15.72;61.77;101169.09;4923121;28;20049;-58
2023/01/17 01:45:17;;;;;;;6.85;4.40;;;;;;;-15.52;61.57;101158.56;4918377;28;20053;-59
2023/01/17 01:47:49;;;;;;;8.98;4.10;;;;;;;-15.41;61.39;101148.72;4910926;28;20059;-59
2023/01/17 01:50:22;;;;;;;9.25;4.07;;;;;;;-15.22;61.44;101160.75;4921352;28;20059;-59
2023/01/17 01:52:56;;;;;;;5.50;3.58;;;;;;;-15.05;61.57;101154.00;4921612;28;20048;-59
2023/01/17 01:55:31;;;;;;;6.45;3.67;;;;;;;-14.91;61.38;101158.75;4911699;28;20105;-58
2023/01/17 01:58:09;;;;;;;5.07;3.60;;;;;;;-14.76;60.92;101159.38;4921967;28;20063;-59
2023/01/17 02:00:41;;;;;;;6.20;4.05;;;;;;;-14.70;60.68;101169.13;4911633;28;20052;-59
2023/01/17 02:03:16;;;;;;;3.85;3.25;;;;;;;-14.59;60.49;101153.50;4921103;28;20044;-58
2023/01/17 02:05:47;;;;;;;6.82;3.50;;;;;;;-14.56;60.28;101148.78;4911280;28;20135;-59
2023/01/17 02:08:20;;;;;;;6.35;3.40;;;;;;;-14.49;60.21;101156.13;4921385;28;20060;-59
2023/01/17 02:10:51;;;;;;;4.15;3.10;;;;;;;-14.54;59.67;101147.31;4921141;28;20451;-59
2023/01/17 02:13:24;;;;;;;4.00;2.97;;;;;;;-14.57;59.87;101147.91;4921527;28;20044;-59
2023/01/17 02:16:03;;;;;;;8.48;4.30;;;;;;;-14.74;59.08;101147.00;4914337;28;20053;-59
2023/01/17 02:18:49;;;;;;;10.88;3.85;;;;;;;-14.71;59.80;101147.28;4916149;28;20053;-59
2023/01/17 02:21:29;;;;;;;8.10;3.88;;;;;;;-14.57;59.89;101147.03;4910510;28;20121;-59
2023/01/17 02:24:26;;;;;;;7.65;3.63;;;;;;;-14.59;59.30;101143.47;4910951;28;20067;-58
2023/01/17 02:27:04;;;;;;;3.53;2.75;;;;;;;-14.99;59.28;101074.38;4899317;28;20109;-59
2023/01/17 02:30:19;;;;;;;5.88;3.47;;;;;;;-14.64;59.01;101139.63;4911046;28;20136;-59
2023/01/17 02:33:13;;;;;;;4.68;3.38;;;;;;;-14.34;59.83;101137.53;4910619;28;20048;-59
2023/01/17 02:35:54;;;;;;;4.63;2.97;;;;;;;-14.13;60.41;101137.81;4909079;28;20167;-59
2023/01/17 02:38:37;;;;;;;7.50;3.78;;;;;;;-13.98;60.48;101134.22;4913789;28;20063;-60
2023/01/17 02:41:12;;;;;;;6.57;3.60;;;;;;;-13.88;59.97;101130.06;4910702;28;20709;-59
2023/01/17 02:43:42;;;;;;;4.55;2.80;;;;;;;-13.88;58.98;101130.06;4920859;28;20047;-59
2023/01/17 02:46:13;;;;;;;7.55;3.13;;;;;;;-13.86;58.67;101133.63;4921189;28;20060;-59
2023/01/17 02:48:46;;;;;;;5.82;3.40;;;;;;;-13.78;59.25;101132.72;4928876;28;20466;-60
2023/01/17 02:51:39;;;;;;;4.53;3.00;;;;;;;-13.93;59.41;101112.94;4920915;28;20055;-59
2023/01/17 02:54:30;;;;;;;8.38;3.38;;;;;;;-14.03;58.90;101115.31;4909595;28;20077;-60
2023/01/17 02:57:16;;;;;;;6.72;3.58;;;;;;;-14.10;58.69;101114.59;4910265;28;20056;-59
2023/01/17 02:59:53;;;;;;;4.53;3.58;;;;;;;-14.10;58.41;101102.97;4909687;28;20051;-60
2023/01/17 03:02:32;;;;;;;7.05;3.63;;;;;;;-14.23;58.34;101094.97;4914795;28;20050;-60
2023/01/17 03:05:09;;;;;;;8.25;3.60;;;;;;;-14.16;59.38;101102.38;4920577;28;20462;-59
2023/01/17 03:07:43;;;;;;;4.90;3.40;;;;;;;-14.20;58.94;101100.28;4909926;28;20055;-59
2023/01/17 03:10:17;;;;;;;4.63;3.47;;;;;;;-14.30;58.07;101107.69;4916608;28;20046;-60
2023/01/17 03:12:47;;;;;;;5.35;3.45;;;;;;;-14.35;58.07;101109.75;4920057;28;20063;-60
2023/01/17 03:15:21;;;;;;;6.55;3.55;;;;;;;-14.32;58.13;101099.13;4920194;28;20052;-60
2023/01/17 03:17:54;;;;;;;6.85;3.67;;;;;;;-14.28;58.26;101097.06;4920446;28;20108;-60
2023/01/17 03:20:26;;;;;;;5.90;3.38;;;;;;;-14.02;59.22;101098.66;4912506;28;20160;-60
2023/01/17 03:22:57;;;;;;;8.05;3.45;;;;;;;-13.88;59.23;101089.88;4919592;28;20139;-60
2023/01/17 03:25:28;;;;;;;7.43;3.38;;;;;;;-13.84;58.99;101096.97;4921435;28;20460;-60
2023/01/17 03:27:58;;;;;;;6.75;3.30;;;;;;;-13.81;58.66;101087.22;4920597;28;20056;-60
2023/01/17 03:30:29;;;;;;;4.97;3.20;;;;;;;-13.91;57.26;101086.34;4919950;28;20060;-60
2023/01/17 03:33:00;;;;;;;11.05;3.50;;;;;;;-13.93;56.70;101087.81;4919765;28;20143;-61
2023/01/17 03:35:32;;;;;;;7.88;3.47;;;;;;;-14.05;56.44;101065.69;4920299;28;20053;-60
2023/01/17 03:38:02;;;;;;;4.85;3.38;;;;;;;-14.06;56.71;101084.91;4919256;28;20062;-61
2023/01/17 03:40:33;;;;;;;9.68;4.43;;;;;;;-14.13;56.72;101073.38;4920180;28;20158;-60
2023/01/17 03:43:03;;;;;;;6.43;3.90;;;;;;;-14.15;57.10;101079.00;4917646;28;20787;-61
2023/01/17 03:45:36;;;;;;;7.03;3.92;;;;;;;-14.35;57.27;101065.47;4924599;28;20748;-61
2023/01/17 03:48:08;;;;;;;6.55;3.85;;;;;;;-14.31;56.90;101078.31;4919442;28;20055;-60
2023/01/17 03:50:43;;;;;;;9.48;3.80;;;;;;;-14.25;57.15;101078.88;4919380;28;20044;-61
2023/01/17 03:53:15;;;;;;;10.65;3.88;;;;;;;-14.20;57.05;101076.09;4914390;28;20118;-61
2023/01/17 03:55:47;;;;;;;7.05;3.88;;;;;;;-14.12;56.50;101075.19;4918991;28;20614;-61
2023/01/17 03:58:19;;;;;;;6.13;3.20;;;;;;;-14.26;54.40;101069.59;4921830;28;20052;-61
2023/01/17 04:00:51;;;;;;;7.60;3.75;;;;;;;-14.24;53.59;101070.63;4921574;28;20055;-60
2023/01/17 04:03:24;;;;;;;6.60;3.50;;;;;;;-14.25;53.59;101072.25;4918260;28;20452;-61
2023/01/17 04:05:59;;;;;;;8.63;3.83;;;;;;;-14.19;53.41;101071.94;4921220;28;20052;-61
2023/01/17 04:08:31;;;;;;;7.45;3.80;;;;;;;-14.10;53.76;101062.78;4920674;28;20058;-60
2023/01/17 04:11:03;;;;;;;8.57;3.67;;;;;;;-13.87;53.35;101071.56;4921087;28;20413;-61
2023/01/17 04:13:35;;;;;;;6.78;3.40;;;;;;;-13.75;53.00;101077.72;4912405;28;20054;-61
2023/01/17 04:16:07;;;;;;;7.10;3.38;;;;;;;-13.71;51.68;101074.75;4919873;28;20141;-61
2023/01/17 04:18:41;;;;;;;6.13;3.33;;;;;;;-13.71;51.99;101064.69;4920762;28;20048;-60
2023/01/17 04:21:15;;;;;;;10.77;3.70;;;;;;;-13.66;51.11;101077.69;4920736;28;20134;-60
2023/01/17 04:23:46;;;;;;;5.80;3.47;;;;;;;-13.70;50.49;101066.50;4908980;28;20052;-61
2023/01/17 04:26:19;;;;;;;6.97;3.28;;;;;;;-13.68;51.54;101064.97;4921626;28;20040;-60
2023/01/17 04:28:51;;;;;;;6.30;2.85;;;;;;;-13.76;51.37;101050.84;4921179;28;20443;-61
2023/01/17 04:31:23;;;;;;;5.63;3.30;;;;;;;-13.65;51.55;101059.34;4921397;28;20474;-61
2023/01/17 04:33:55;;;;;;;8.65;3.15;;;;;;;-13.63;51.31;101043.66;4912624;28;20412;-61
2023/01/17 04:36:30;;;;;;;4.45;3.03;;;;;;;-13.65;50.25;101064.38;4921170;28;20047;-61
2023/01/17 04:39:02;;;;;;;5.50;3.50;;;;;;;-13.73;50.51;101057.00;4919001;28;20128;-61
2023/01/17 04:41:34;;;;;;;6.28;3.53;;;;;;;-13.96;50.82;101022.22;4920371;28;20068;-61
2023/01/17 04:44:06;;;;;;;5.68;3.35;;;;;;;-13.83;50.02;101051.00;4920462;28;20059;-60
2023/01/17 04:46:38;;;;;;;5.03;3.40;;;;;;;-13.80;49.98;101068.88;4921215;28;20097;-61
2023/01/17 04:49:10;;;;;;;5.25;3.65;;;;;;;-13.76;49.56;101056.72;4920315;28;20063;-60
2023/01/17 04:51:43;;;;;;;7.70;3.75;;;;;;;-13.73;49.95;101034.41;4919469;28;20098;-60
2023/01/17 04:54:15;;;;;;;5.72;3.42;;;;;;;-13.62;50.07;101050.47;4913440;28;20491;-62
2023/01/17 04:56:47;;;;;;;6.80;3.70;;;;;;;-13.76;49.77;101040.78;4920647;28;20055;-61
2023/01/17 04:59:20;;;;;;;7.65;3.78;;;;;;;-13.82;48.90;101055.31;4920139;28;20172;-61
2023/01/17 05:01:52;;;;;;;3.40;2.90;;;;;;;-13.97;49.03;101035.53;4919267;28;20052;-60
2023/01/17 05:04:25;;;;;;;9.55;3.40;;;;;;;-13.85;48.43;101057.50;4914310;28;20060;-60
2023/01/17 05:06:59;;;;;;;7.28;4.00;;;;;;;-13.81;49.21;101067.97;4920640;28;20059;-60
2023/01/17 05:09:31;;;;;;;6.05;3.67;;;;;;;-13.77;49.75;101074.19;4919754;28;20060;-60
2023/01/17 05:12:02;;;;;;;7.75;3.90;;;;;;;-13.79;49.92;101070.66;4919666;28;20139;-61
2023/01/17 05:14:34;;;;;;;6.57;3.70;;;;;;;-13.98;50.06;101068.91;4917492;28;20492;-61
2023/01/17 05:17:06;;;;;;;6.00;3.83;;;;;;;-14.45;49.82;101012.66;4919351;28;20614;-60
2023/01/17 05:19:38;;;;;;;5.60;3.70;;;;;;;-14.19;49.25;101076.97;4920653;28;20436;-60
2023/01/17 05:22:16;;;;;;;5.00;4.18;;;;;;;-14.17;49.73;101060.44;4922162;28;20048;-60
2023/01/17 05:24:49;;;;;;;5.07;3.67;;;;;;;-14.07;50.69;101078.13;4913916;28;20050;-60
2023/01/17 05:27:21;;;;;;;7.53;4.60;;;;;;;-14.14;50.01;101081.69;4923892;28;20155;-60
2023/01/17 05:29:55;;;;;;;9.02;4.07;;;;;;;-14.19;50.23;101082.00;4922241;28;20056;-61
2023/01/17 05:32:32;;;;;;;7.85;4.07;;;;;;;-14.13;50.16;101077.53;4924693;28;20040;-60
2023/01/17 05:35:03;;;;;;;5.82;3.63;;;;;;;-13.99;49.96;101082.22;4923198;28;20126;-61
2023/01/17 05:37:38;;;;;;;5.85;3.63;;;;;;;-13.78;49.92;101074.94;4924212;28;20846;-61
2023/01/17 05:40:13;;;;;;;8.95;4.43;;;;;;;-14.35;49.40;100955.03;4923767;28;20052;-61
2023/01/17 05:42:48;;;;;;;8.10;4.50;;;;;;;-13.50;49.34;101076.75;4918203;28;20046;-61
2023/01/17 05:45:21;;;;;;;7.57;3.90;;;;;;;-13.21;50.27;101085.13;4923723;28;20061;-60
2023/01/17 05:47:55;;;;;;;7.72;4.05;;;;;;;-13.18;50.35;101056.09;4923244;28;20128;-61
2023/01/17 05:50:29;;;;;;;10.52;4.13;;;;;;;-12.74;52.17;101071.78;4911625;28;20062;-60
2023/01/17 05:53:04;;;;;;;6.88;3.92;;;;;;;-12.63;52.67;101076.16;4923952;28;20759;-61
2023/01/17 05:55:38;;;;;;;6.55;4.18;;;;;;;-12.53;53.24;101081.97;4913992;28;20120;-62
2023/01/17 05:58:14;;;;;;;8.35;3.63;;;;;;;-12.58;52.15;101084.09;4923573;28;20059;-61
2023/01/17 06:00:47;;;;;;;6.65;3.85;;;;;;;-13.21;52.15;101000.50;4912631;28;21503;-62
2023/01/17 06:03:19;;;;;;;14.40;7.13;;;;;;;-12.86;51.56;101081.63;4922997;28;20139;-61
2023/01/17 06:05:52;;;;;;;16.60;6.03;;;;;;;-13.00;52.13;101072.00;4923546;28;20047;-61
2023/01/17 06:08:25;;;;;;;27.30;10.20;;;;;;;-13.07;52.93;101080.59;4922443;28;20054;-61
2023/01/17 06:11:00;;;;;;;42.72;19.20;;;;;;;-13.11;53.52;101083.56;4923328;28;20055;-61
2023/01/17 06:13:32;;;;;;;17.63;6.15;;;;;;;-13.19;53.96;101084.53;4923454;28;20042;-61
2023/01/17 06:16:04;;;;;;;6.10;4.10;;;;;;;-13.33;53.92;101075.75;4921053;28;20068;-61
2023/01/17 06:18:36;;;;;;;8.63;4.07;;;;;;;-13.25;54.60;101084.00;4922308;28;20068;-61
2023/01/17 06:21:09;;;;;;;5.63;3.72;;;;;;;-13.38;54.25;101081.09;4922663;28;20063;-61
2023/01/17 06:23:45;;;;;;;7.38;3.58;;;;;;;-13.52;54.11;101082.38;4922997;28;20055;-61
2023/01/17 06:26:17;;;;;;;6.47;3.60;;;;;;;-13.69;53.76;101085.84;4909114;28;20063;-61
2023/01/17 06:28:49;;;;;;;6.57;3.33;;;;;;;-13.69;53.73;101083.31;4921092;28;20055;-60
2023/01/17 06:31:22;;;;;;;6.20;3.53;;;;;;;-13.76;53.84;101086.88;4922252;28;20071;-60
2023/01/17 06:33:54;;;;;;;5.43;3.50;;;;;;;-14.61;54.02;100964.28;4922236;28;20050;-61
2023/01/17 06:36:27;;;;;;;5.80;3.30;;;;;;;-14.05;54.44;101091.72;4923029;28;20087;-60
2023/01/17 06:39:01;;;;;;;7.75;3.55;;;;;;;-14.24;55.01;101088.22;4921081;28;20134;-60
2023/01/17 06:41:33;;;;;;;6.90;3.67;;;;;;;-14.32;56.05;101079.03;4932656;28;20095;-60
2023/01/17 06:44:07;;;;;;;5.47;3.10;;;;;;;-14.36;56.69;101063.69;4912798;28;20086;-61
2023/01/17 06:46:39;;;;;;;5.78;3.63;;;;;;;-14.32;56.88;101069.00;4922761;28;20052;-60
2023/01/17 06:49:11;;;;;;;7.60;4.03;;;;;;;-14.50;57.62;101066.53;4922542;28;20052;-60
2023/01/17 06:51:43;;;;;;;6.85;3.55;;;;;;;-15.02;58.54;101064.06;4920933;28;20067;-60
2023/01/17 06:54:17;;;;;;;8.85;3.95;;;;;;;-14.97;59.73;101070.41;4918421;28;20060;-60
2023/01/17 06:56:50;;;;;;;10.65;4.13;;;;;;;-15.02;60.39;101079.09;4922008;28;20048;-60
2023/01/17 06:59:23;;;;;;;7.70;3.97;;;;;;;-15.00;61.17;101073.50;4921753;28;20047;-60
2023/01/17 07:02:02;;;;;;;7.07;3.53;;;;;;;-15.18;61.87;101030.69;4917369;28;20058;-60
2023/01/17 07:04:37;;;;;;;9.52;4.03;;;;;;;-14.89;62.08;101071.16;4912926;28;20052;-59
2023/01/17 07:07:07;;;;;;;10.05;3.80;;;;;;;-14.88;62.48;101063.75;4922948;28;20048;-60
2023/01/17 07:09:39;;;;;;;9.48;4.30;;;;;;;-14.88;63.04;101058.72;4923041;28;20059;-60
2023/01/17 07:12:10;;;;;;;8.45;3.80;;;;;;;-14.82;62.94;101064.34;4923237;28;20067;-60
2023/01/17 07:14:40;;;;;;;10.48;3.95;;;;;;;-14.88;63.03;101068.75;4921651;28;20105;-60
2023/01/17 07:17:11;;;;;;;10.98;5.43;;;;;;;-15.00;63.45;101055.03;4922928;28;20078;-60
2023/01/17 07:19:41;;;;;;;7.20;4.35;;;;;;;-15.13;63.78;101049.56;4923578;28;20059;-60
2023/01/17 07:22:12;;;;;;;11.05;5.72;;;;;;;-15.22;63.91;101055.47;4923770;28;20107;-59
2023/01/17 07:24:44;;;;;;;10.10;5.22;;;;;;;-15.25;64.42;101060.19;4922592;28;20137;-61
2023/01/17 07:27:14;;;;;;;9.73;4.63;;;;;;;-15.33;64.93;101056.03;4913767;28;20057;-60
2023/01/17 07:29:45;;;;;;;8.27;4.60;;;;;;;-15.44;65.35;101056.59;4922820;28;20747;-59
2023/01/17 07:32:15;;;;;;;10.95;4.68;;;;;;;-15.56;65.40;101061.28;4922675;28;20052;-60
2023/01/17 07:34:45;;;;;;;6.45;4.45;;;;;;;-15.76;65.60;101040.91;4922579;28;20052;-60
2023/01/17 07:37:16;;;;;;;8.98;5.18;;;;;;;-15.71;66.15;101055.66;4923098;28;20070;-59
2023/01/17 07:39:48;;;;;;;10.68;5.13;;;;;;;-15.79;66.57;101056.50;4922632;28;20360;-60
2023/01/17 07:42:19;;;;;;;10.20;5.20;;;;;;;-15.77;66.75;101057.56;4921686;28;20048;-59
2023/01/17 07:44:52;;;;;;;10.50;4.80;;;;;;;-16.02;66.86;101045.78;4921571;28;20466;-60
2023/01/17 07:47:23;;;;;;;9.68;5.40;;;;;;;-16.03;67.29;101064.06;4922962;28;20546;-59
2023/01/17 07:49:54;;;;;;;9.13;5.00;;;;;;;-16.20;67.46;101075.72;4917816;28;21767;-59
2023/01/17 07:52:24;;;;;;;19.63;9.88;;;;;;;-16.32;67.36;101077.88;4925524;28;20061;-59
2023/01/17 07:54:56;;;;;;;8.50;6.25;;;;;;;-16.48;67.85;101073.66;4922823;28;20055;-59
2023/01/17 07:57:27;;;;;;;7.50;4.55;;;;;;;-16.75;68.13;101072.56;4922249;28;20694;-58
2023/01/17 07:59:57;;;;;;;89.90;28.60;;;;;;;-16.88;68.63;101074.56;4921990;28;20048;-59
2023/01/17 08:02:28;;;;;;;25.73;9.77;;;;;;;-17.01;69.35;101075.75;4952404;28;20764;-60
2023/01/17 08:05:07;;;;;;;7.85;5.60;;;;;;;-17.15;69.96;101078.41;4925600;28;20044;-59
2023/01/17 08:07:38;;;;;;;10.77;5.97;;;;;;;-17.08;70.63;101080.84;4909575;28;20413;-59
2023/01/17 08:10:16;;;;;;;7.30;4.72;;;;;;;-16.98;70.69;101095.19;4921125;28;20524;-59
2023/01/17 08:12:48;;;;;;;7.93;4.95;;;;;;;-17.10;70.93;101079.78;4908505;28;20105;-59
2023/01/17 08:15:25;;;;;;;16.35;8.20;;;;;;;-17.06;71.02;101106.88;4919240;28;20044;-59
2023/01/17 08:18:00;;;;;;;22.13;10.93;;;;;;;-17.21;71.12;101100.25;4907860;28;20048;-60
2023/01/17 08:20:51;;;;;;;35.63;12.98;;;;;;;-17.27;71.47;101099.59;4918538;28;20048;-59
2023/01/17 08:23:24;;;;;;;17.10;9.38;;;;;;;-17.25;71.59;101100.66;4893323;28;20053;-59
2023/01/17 08:26:01;;;;;;;14.93;7.80;;;;;;;-17.37;71.47;101091.84;4919241;28;20060;-58
2023/01/17 08:28:32;;;;;;;14.05;7.00;;;;;;;-17.21;71.49;101100.25;4918930;28;20048;-59
2023/01/17 08:31:08;;;;;;;16.38;6.13;;;;;;;-17.00;71.64;101109.13;4919402;28;20051;-59
2023/01/17 08:33:38;;;;;;;11.13;5.55;;;;;;;-17.03;70.95;101107.19;4903374;28;20948;-59
2023/01/17 08:36:09;;;;;;;6.82;4.60;;;;;;;-17.16;70.14;101104.13;4920166;28;20052;-59
2023/01/17 08:38:40;;;;;;;17.73;6.65;;;;;;;-17.31;69.76;101102.50;4919873;28;20063;-58
2023/01/17 08:41:13;;;;;;;109.70;37.03;;;;;;;-17.67;69.30;101125.28;4920859;28;20465;-59
2023/01/17 08:43:44;;;;;;;89.43;32.10;;;;;;;-17.88;69.71;101119.78;4907114;28;20100;-59
2023/01/17 08:46:14;;;;;;;101.53;34.80;;;;;;;-18.07;69.70;101101.94;4917554;28;20050;-58
2023/01/17 08:49:10;;;;;;;93.25;36.35;;;;;;;-18.19;69.63;101104.66;4900686;28;20876;-59
2023/01/17 08:51:43;;;;;;;37.90;16.67;;;;;;;-18.33;69.57;101106.53;4906913;28;20214;-59
2023/01/17 08:54:14;;;;;;;26.88;12.27;;;;;;;-18.37;69.93;101114.38;4915760;28;20041;-59
2023/01/17 08:56:51;;;;;;;17.88;10.90;;;;;;;-18.55;69.67;101109.84;4918523;28;20056;-59
2023/01/17 08:59:23;;;;;;;30.88;13.00;;;;;;;-18.24;70.60;101115.72;4920086;28;20059;-58
2023/01/17 09:01:56;;;;;;;17.70;9.07;;;;;;;-18.05;70.85;101114.56;4913212;28;20084;-59
2023/01/17 09:04:28;;;;;;;11.52;5.25;;;;;;;-18.00;70.57;101118.44;4920379;28;20390;-58
2023/01/17 09:07:01;;;;;;;13.63;5.88;;;;;;;-18.15;69.96;101111.78;4918446;28;20055;-58
2023/01/17 09:09:36;;;;;;;10.48;5.10;;;;;;;-18.38;69.23;101102.63;4920750;28;20393;-58
2023/01/17 09:12:10;;;;;;;11.27;6.18;;;;;;;-18.27;68.92;101121.28;4908921;28;20827;-58
2023/01/17 09:14:45;;;;;;;12.48;6.47;;;;;;;-18.44;68.50;101116.94;4912437;28;20063;-59
2023/01/17 09:17:18;;;;;;;20.75;7.95;;;;;;;-18.59;68.41;101115.19;4904903;28;20056;-58
2023/01/17 09:19:50;;;;;;;259.58;65.05;;;;;;;-18.68;68.46;101124.16;4913322;28;20053;-58
2023/01/17 09:22:22;;;;;;;199.93;52.97;;;;;;;-18.87;68.61;101109.66;4919218;28;20059;-58
2023/01/17 09:24:53;;;;;;;216.93;59.10;;;;;;;-18.86;68.74;101118.94;4918884;28;20040;-58
2023/01/17 09:27:29;;;;;;;166.90;49.85;;;;;;;-18.86;68.79;101123.03;4886098;28;20075;-59
2023/01/17 09:30:00;;;;;;;97.55;34.05;;;;;;;-19.13;69.14;101078.44;4886429;28;20044;-58
2023/01/17 09:32:35;;;;;;;58.58;23.70;;;;;;;-18.99;69.76;101105.78;4919437;28;20514;-58
2023/01/17 09:35:08;;;;;;;49.65;18.27;;;;;;;-19.04;70.04;101081.94;4916703;28;20086;-56
2023/01/17 09:37:39;;;;;;;40.50;17.40;;;;;;;-18.88;70.22;101137.78;4918607;28;20048;-57
2023/01/17 09:40:15;;;;;;;36.38;15.77;;;;;;;-18.83;71.00;101144.19;4926473;28;20052;-56
2023/01/17 09:42:56;;;;;;;29.00;12.38;;;;;;;-18.66;71.65;101132.72;4908261;28;20393;-57
2023/01/17 09:45:32;;;;;;;27.25;11.88;;;;;;;-18.61;71.57;101132.50;4893489;28;20059;-57
2023/01/17 09:48:09;;;;;;;26.42;12.95;;;;;;;-18.50;71.78;101136.19;4919880;28;25212;-58
2023/01/17 09:50:48;;;;;;;104.05;27.60;;;;;;;-18.33;71.96;101135.56;4918367;28;20517;-57
2023/01/17 09:53:25;;;;;;;134.73;32.90;;;;;;;-18.29;71.70;101143.56;4904765;28;21212;-58
2023/01/17 09:56:04;;;;;;;95.50;23.60;;;;;;;-18.36;71.70;101146.09;4905375;28;20501;-58
2023/01/17 09:58:44;;;;;;;46.05;14.45;;;;;;;-18.25;72.00;101146.41;4908247;28;20048;-58
2023/01/17 10:01:22;;;;;;;35.75;12.88;;;;;;;-18.17;72.37;101138.16;4909870;28;20063;-57
2023/01/17 10:04:14;;;;;;;64.90;19.08;;;;;;;-18.12;72.26;101122.06;4912424;28;20128;-56
2023/01/17 10:07:02;;;;;;;67.53;17.55;;;;;;;-18.14;72.52;101131.00;4909336;28;21573;-58
2023/01/17 10:09:51;;;;;;;26.45;10.15;;;;;;;-18.03;72.78;101138.06;4912118;28;20092;-58
2023/01/17 10:12:32;;;;;;;11.73;6.47;;;;;;;-17.93;72.77;101140.84;4912903;28;20043;-57
2023/01/17 10:15:25;;;;;;;13.82;6.32;;;;;;;-17.97;72.67;101127.88;4912085;28;25329;-57
2023/01/17 10:18:07;;;;;;;10.98;5.70;;;;;;;-17.94;72.98;101134.09;4900328;28;20129;-57
2023/01/17 10:21:00;;;;;;;14.82;6.20;;;;;;;-17.83;72.69;101121.16;4912075;28;20059;-58
2023/01/17 10:24:05;;;;;;;11.18;5.00;;;;;;;-17.79;72.75;101123.97;4911694;28;20055;-58
2023/01/17 10:26:39;;;;;;;15.90;6.82;;;;;;;-17.73;72.55;101127.13;4905310;28;20071;-57
2023/01/17 10:29:17;;;;;;;18.98;7.97;;;;;;;-17.74;72.75;101136.22;4922917;28;21357;-58
2023/01/17 10:31:56;;;;;;;32.90;10.50;;;;;;;-17.71;72.35;101138.19;4903700;28;20044;-58
2023/01/17 10:34:33;;;;;;;135.48;29.67;;;;;;;-17.86;71.95;101133.31;4910359;28;20062;-58
2023/01/17 10:37:17;;;;;;;107.72;27.63;;;;;;;-18.15;71.79;101124.25;4918297;28;20112;-58
2023/01/17 10:39:50;;;;;;;95.97;26.38;;;;;;;-18.90;71.64;101032.06;4912538;28;20105;-58
2023/01/17 10:42:27;;;;;;;37.10;14.02;;;;;;;-18.58;71.70;101125.34;4922649;28;20044;-58
2023/01/17 10:45:05;;;;;;;22.35;11.02;;;;;;;-18.64;72.39;101126.25;4910370;28;20056;-57
2023/01/17 10:47:39;;;;;;;52.30;20.25;;;;;;;-18.67;72.33;101130.91;4912258;28;20532;-58
2023/01/17 10:50:15;;;;;;;17.95;9.13;;;;;;;-18.60;72.74;101124.28;4922247;28;20063;-58
2023/01/17 10:52:57;;;;;;;13.07;7.78;;;;;;;-18.57;72.76;101123.75;4911285;28;21141;-58
2023/01/17 10:55:36;;;;;;;;;;;;;;;-18.54;72.86;101134.09;4912278;28;20082;-57
2023/01/17 10:58:12;;;;;;;24.58;9.40;;;;;;;-18.63;72.38;101128.06;4912037;28;20065;-58
2023/01/17 11:00:48;;;;;;;22.85;8.70;;;;;;;-18.65;72.63;101129.50;4911252;28;20063;-57
2023/01/17 11:03:22;;;;;;;20.00;8.05;;;;;;;-18.74;72.47;101120.28;4900364;28;20053;-58
2023/01/17 11:06:18;;;;;;;21.80;8.98;;;;;;;-18.73;72.66;101132.00;4910835;28;20096;-58
2023/01/17 11:08:57;;;;;;;19.35;8.45;;;;;;;-19.11;72.71;101064.56;4884425;28;20044;-57
2023/01/17 11:11:32;;;;;;;16.23;7.03;;;;;;;-18.76;72.37;101136.69;4901225;28;20048;-57
2023/01/17 11:14:06;;;;;;;31.75;11.65;;;;;;;-18.64;72.64;101123.78;4910029;28;20460;-57
2023/01/17 11:16:47;;;;;;;17.45;7.25;;;;;;;-18.56;72.73;101140.50;4902332;28;20049;-55
2023/01/17 11:19:28;;;;;;;19.17;8.93;;;;;;;-18.35;73.00;101127.03;4890774;28;20136;-54
2023/01/17 11:22:03;;;;;;;45.87;14.80;;;;;;;-18.24;72.63;101115.72;4884818;28;20091;-55
2023/01/17 11:24:39;;;;;;;51.75;17.35;;;;;;;-18.08;72.29;101114.22;4902643;28;20276;-56
2023/01/17 11:27:25;;;;;;;45.53;16.58;;;;;;;-18.06;71.67;101102.81;4909826;28;20504;-56
2023/01/17 11:30:15;;;;;;;40.10;15.32;;;;;;;-18.23;71.10;101077.63;4898823;28;20416;-56
2023/01/17 11:32:56;;;;;;;31.83;13.70;;;;;;;-18.21;71.09;101091.16;4888686;28;20060;-56
2023/01/17 11:35:30;;;;;;;27.08;11.68;;;;;;;-18.28;70.51;101090.47;4899820;28;20044;-58
2023/01/17 11:38:13;;;;;;;15.82;8.95;;;;;;;-19.04;69.75;100972.34;4910288;28;20048;-57
2023/01/17 11:40:46;;;;;;;17.95;8.43;;;;;;;-18.54;69.74;101079.25;4895239;28;20099;-55
2023/01/17 11:43:26;;;;;;;20.20;8.02;;;;;;;-18.85;69.50;101050.91;4910771;28;20045;-56
2023/01/17 11:46:06;;;;;;;15.30;7.32;;;;;;;-19.22;69.35;100996.97;4899501;28;20457;-56
2023/01/17 11:48:38;;;;;;;18.85;7.28;;;;;;;-18.58;69.80;101082.09;4880445;28;20103;-55
2023/01/17 11:51:25;;;;;;;19.85;6.97;;;;;;;-18.57;69.91;101094.72;4890555;28;20394;-57
2023/01/17 11:54:16;;;;;;;18.67;7.53;;;;;;;-18.62;70.00;101084.94;4879816;28;20049;-55
2023/01/17 11:56:47;;;;;;;15.15;8.00;;;;;;;-18.54;69.82;101091.69;4879925;28;20048;-56
2023/01/17 11:59:30;;;;;;;26.67;9.77;;;;;;;-18.63;69.44;101095.66;4897961;28;20059;-55
2023/01/17 12:02:22;;;;;;;28.70;12.40;;;;;;;-18.60;69.10;101088.50;4899575;28;20052;-57
2023/01/17 12:05:14;;;;;;;34.63;13.30;;;;;;;-18.66;68.84;101087.84;4888111;28;20048;-57
2023/01/17 12:07:57;;;;;;;23.75;10.93;;;;;;;-18.91;68.16;101084.25;4901159;28;20184;-56
2023/01/17 12:10:51;;;;;;;30.00;14.15;;;;;;;-19.30;67.83;101062.47;4898529;28;20048;-56
2023/01/17 12:16:30;;;;;;;24.00;12.73;;;;;;;-19.37;67.85;101087.38;4923475;28;20063;-56
2023/01/17 12:19:42;;;;;;;22.63;11.18;;;;;;;-19.55;67.56;101097.72;4918697;28;20495;-56
2023/01/17 12:22:35;;;;;;;24.75;9.80;;;;;;;-19.44;67.86;101083.31;4904993;28;20487;-53
2023/01/17 12:25:25;;;;;;;22.25;10.27;;;;;;;-19.45;67.56;101085.63;4917581;28;20044;-57
2023/01/17 12:28:10;;;;;;;15.90;8.32;;;;;;;-19.51;67.54;101074.97;4918796;28;20130;-57
2023/01/17 12:31:02;;;;;;;12.13;7.18;;;;;;;-19.57;67.28;101090.97;4918475;28;20050;-55
2023/01/17 12:33:50;;;;;;;14.85;7.63;;;;;;;-19.57;67.27;101098.44;4906260;28;20047;-56
2023/01/17 12:36:36;;;;;;;17.80;7.63;;;;;;;-19.69;67.30;101079.66;4918630;28;20044;-57
2023/01/17 12:39:13;;;;;;;17.73;7.25;;;;;;;-19.54;67.81;101084.56;4899919;28;20083;-57
2023/01/17 12:42:00;;;;;;;16.52;7.22;;;;;;;-19.63;67.65;101080.31;4925826;28;20057;-57
2023/01/17 12:44:48;;;;;;;21.20;8.05;;;;;;;-19.65;67.87;101086.72;4911857;28;20049;-52
2023/01/17 12:47:23;;;;;;;25.38;8.40;;;;;;;-19.66;67.65;101084.94;4910114;28;20110;-57
2023/01/17 12:50:04;;;;;;;41.67;12.85;;;;;;;-20.03;67.06;101045.91;4920647;28;20052;-56
2023/01/17 12:52:53;;;;;;;42.20;12.00;;;;;;;-20.10;67.14;101068.28;4911016;28;20127;-56
2023/01/17 12:55:35;;;;;;;40.00;14.10;;;;;;;-20.19;67.04;101082.13;4902587;28;20054;-55
2023/01/17 12:58:18;;;;;;;20.25;9.10;;;;;;;-20.51;66.80;101061.84;4881204;28;20056;-56
2023/01/17 13:01:01;;;;;;;16.02;8.18;;;;;;;-20.38;67.25;101083.16;4898644;28;20493;-56
2023/01/17 13:03:44;;;;;;;19.75;7.97;;;;;;;-20.30;67.06;101097.38;4916864;28;20097;-57
2023/01/17 13:06:23;;;;;;;84.50;22.80;;;;;;;-20.59;67.19;101042.66;4914220;28;20119;-56
2023/01/17 13:08:58;;;;;;;57.65;16.23;;;;;;;-20.80;66.68;101021.16;4911354;28;20613;-53
2023/01/17 13:11:42;;;;;;;46.45;15.02;;;;;;;-20.43;66.52;101099.13;4906654;28;20155;-54
2023/01/17 13:14:17;;;;;;;36.47;12.95;;;;;;;-20.53;66.33;101098.03;4897529;28;20049;-56
2023/01/17 13:16:56;;;;;;;90.65;24.70;;;;;;;-20.56;66.49;101102.69;4898578;28;20395;-54